TCV691 KPVD-GVNP
Flight info
| Callsign | TCV691 |
|---|---|
| Flight time | 6h 27m |
| Altitude | 33000 |
| Route | JUMPR DCT DOVEY/M079F330 DCT 41N060W 41N055W/M079F350 39N042W 33N035W 27N030W/M079F370 DCT OBOMO/N0458F370 DCT NCL DCT SNT DCT 1446N02329W 1447N02333W DCT 1450N02332W |
| Aircraft | B38M/M-SDE1FGHILORVWXY/HB1 |
Departure
| Time | 2026-05-05 11:53 |
|---|---|
| Airport | Rhode Island T. F. Green International Airport (KPVD) |
Arrival
| Time | 2026-05-05 18:20 |
|---|---|
| Airport | Nelson Mandela International Airport (GVNP) |
| Time | Latitude | Longitude | Altitude | Speed | Heading |
|---|---|---|---|---|---|
| 2026-05-05 11:45 | 41.72537 | -71.43489 | 69 ft | 0 kts | 287° |
| 2026-05-05 11:46 | 41.72534 | -71.43478 | 69 ft | 4 kts | 287° |
| 2026-05-05 11:46 | 41.72526 | -71.43443 | 60 ft | 4 kts | 288° |
| 2026-05-05 11:47 | 41.72517 | -71.43414 | 59 ft | 2 kts | 306° |
| 2026-05-05 11:47 | 41.72508 | -71.43405 | 66 ft | 2 kts | 6° |
| 2026-05-05 11:47 | 41.72497 | -71.43409 | 62 ft | 2 kts | 27° |
| 2026-05-05 11:47 | 41.72490 | -71.43415 | 59 ft | 0 kts | 31° |
| 2026-05-05 11:49 | 41.72492 | -71.43414 | 59 ft | 1 kts | 31° |
| 2026-05-05 11:49 | 41.72521 | -71.43389 | 67 ft | 9 kts | 32° |
| 2026-05-05 11:49 | 41.72545 | -71.43290 | 69 ft | 17 kts | 110° |
| 2026-05-05 11:50 | 41.72548 | -71.43094 | 65 ft | 25 kts | 86° |
| 2026-05-05 11:50 | 41.72537 | -71.42862 | 60 ft | 25 kts | 121° |
| 2026-05-05 11:50 | 41.72527 | -71.42709 | 56 ft | 16 kts | 34° |
| 2026-05-05 11:50 | 41.72627 | -71.42624 | 54 ft | 19 kts | 32° |
| 2026-05-05 11:51 | 41.72753 | -71.42519 | 54 ft | 24 kts | 32° |
| 2026-05-05 11:51 | 41.72902 | -71.42394 | 58 ft | 25 kts | 32° |
| 2026-05-05 11:51 | 41.73036 | -71.42283 | 59 ft | 17 kts | 31° |
| 2026-05-05 11:51 | 41.73079 | -71.42207 | 64 ft | 10 kts | 101° |
| 2026-05-05 11:52 | 41.73038 | -71.42131 | 61 ft | 11 kts | 153° |
| 2026-05-05 11:52 | 41.72969 | -71.42164 | 61 ft | 15 kts | 213° |
| 2026-05-05 11:52 | 41.72703 | -71.42387 | 56 ft | 81 kts | 212° |
| 2026-05-05 11:52 | 41.72039 | -71.42945 | 59 ft | 143 kts | 212° |
| 2026-05-05 11:53 | 41.71107 | -71.43700 | 158 ft | 167 kts | 212° |
| 2026-05-05 11:53 | 41.70111 | -71.44595 | 820 ft | 176 kts | 213° |
| 2026-05-05 11:53 | 41.69071 | -71.45471 | 1656 ft | 183 kts | 214° |
| 2026-05-05 11:53 | 41.67804 | -71.46183 | 1930 ft | 219 kts | 194° |
| 2026-05-05 11:54 | 41.66219 | -71.46246 | 2642 ft | 236 kts | 180° |
| 2026-05-05 11:54 | 41.64559 | -71.45677 | 3299 ft | 257 kts | 167° |
| 2026-05-05 11:54 | 41.62849 | -71.44885 | 4196 ft | 260 kts | 167° |
| 2026-05-05 11:54 | 41.61126 | -71.44103 | 5087 ft | 263 kts | 168° |
| 2026-05-05 11:55 | 41.59387 | -71.43322 | 5996 ft | 265 kts | 168° |
| 2026-05-05 11:55 | 41.57646 | -71.42546 | 6821 ft | 269 kts | 168° |
| 2026-05-05 11:55 | 41.55863 | -71.41755 | 7565 ft | 273 kts | 168° |
| 2026-05-05 11:55 | 41.54026 | -71.40942 | 8338 ft | 278 kts | 168° |
| 2026-05-05 11:56 | 41.52182 | -71.40127 | 9069 ft | 283 kts | 168° |
| 2026-05-05 11:56 | 41.50301 | -71.39296 | 9825 ft | 287 kts | 168° |
| 2026-05-05 11:56 | 41.48381 | -71.38449 | 10389 ft | 297 kts | 168° |
| 2026-05-05 11:56 | 41.46354 | -71.37559 | 10640 ft | 316 kts | 167° |
| 2026-05-05 11:57 | 41.44193 | -71.36613 | 10881 ft | 336 kts | 167° |
| 2026-05-05 11:57 | 41.41919 | -71.35616 | 11094 ft | 356 kts | 167° |
| 2026-05-05 11:57 | 41.39520 | -71.34563 | 11321 ft | 372 kts | 166° |
| 2026-05-05 11:57 | 41.37048 | -71.33476 | 11835 ft | 378 kts | 166° |
| 2026-05-05 11:58 | 41.34512 | -71.32359 | 12501 ft | 381 kts | 166° |
| 2026-05-05 11:58 | 41.32023 | -71.31264 | 13104 ft | 384 kts | 166° |
| 2026-05-05 11:58 | 41.29475 | -71.30143 | 13732 ft | 387 kts | 166° |
| 2026-05-05 11:58 | 41.26910 | -71.29017 | 14289 ft | 389 kts | 166° |
| 2026-05-05 11:59 | 41.24333 | -71.27884 | 14844 ft | 391 kts | 166° |
| 2026-05-05 11:59 | 41.21779 | -71.26566 | 15377 ft | 398 kts | 155° |
| 2026-05-05 11:59 | 41.19582 | -71.24280 | 15962 ft | 408 kts | 136° |
| 2026-05-05 11:59 | 41.18020 | -71.21100 | 16492 ft | 419 kts | 116° |
| 2026-05-05 12:00 | 41.17252 | -71.17334 | 17024 ft | 428 kts | 99° |
| 2026-05-05 12:00 | 41.17179 | -71.13359 | 17522 ft | 433 kts | 92° |
| 2026-05-05 12:00 | 41.17179 | -71.09353 | 17987 ft | 436 kts | 92° |
| 2026-05-05 12:01 | 41.17186 | -71.05997 | 18388 ft | 439 kts | 92° |
| 2026-05-05 12:01 | 41.17199 | -71.01938 | 18802 ft | 441 kts | 92° |
| 2026-05-05 12:02 | 41.17213 | -70.97852 | 19262 ft | 443 kts | 92° |
| 2026-05-05 12:02 | 41.17225 | -70.93798 | 19681 ft | 445 kts | 92° |
| 2026-05-05 12:02 | 41.17236 | -70.89684 | 20103 ft | 447 kts | 92° |
| 2026-05-05 12:02 | 41.17246 | -70.85542 | 20529 ft | 449 kts | 92° |
| 2026-05-05 12:03 | 41.17254 | -70.81378 | 20943 ft | 452 kts | 92° |
| 2026-05-05 12:03 | 41.17261 | -70.77200 | 21358 ft | 454 kts | 91° |
| 2026-05-05 12:03 | 41.17267 | -70.73011 | 21777 ft | 455 kts | 91° |
| 2026-05-05 12:03 | 41.17271 | -70.68805 | 22178 ft | 457 kts | 91° |
| 2026-05-05 12:04 | 41.17273 | -70.64568 | 22579 ft | 459 kts | 91° |
| 2026-05-05 12:04 | 41.17274 | -70.60305 | 22978 ft | 462 kts | 91° |
| 2026-05-05 12:04 | 41.17274 | -70.56042 | 23354 ft | 464 kts | 91° |
| 2026-05-05 12:04 | 41.17271 | -70.51748 | 23696 ft | 466 kts | 91° |
| 2026-05-05 12:05 | 41.17267 | -70.47435 | 24011 ft | 468 kts | 91° |
| 2026-05-05 12:05 | 41.17262 | -70.43104 | 24325 ft | 470 kts | 91° |
| 2026-05-05 12:05 | 41.17255 | -70.38792 | 24627 ft | 472 kts | 91° |
| 2026-05-05 12:05 | 41.17246 | -70.34394 | 24939 ft | 474 kts | 91° |
| 2026-05-05 12:06 | 41.17235 | -70.30008 | 25238 ft | 476 kts | 91° |
| 2026-05-05 12:06 | 41.17223 | -70.25621 | 25535 ft | 477 kts | 91° |
| 2026-05-05 12:06 | 41.17209 | -70.21198 | 25839 ft | 479 kts | 91° |
| 2026-05-05 12:06 | 41.17194 | -70.16824 | 26116 ft | 481 kts | 91° |
| 2026-05-05 12:07 | 41.17176 | -70.12380 | 26396 ft | 483 kts | 91° |
| 2026-05-05 12:07 | 41.17157 | -70.07922 | 26665 ft | 485 kts | 91° |
| 2026-05-05 12:07 | 41.17136 | -70.03432 | 26933 ft | 487 kts | 91° |
| 2026-05-05 12:07 | 41.17113 | -69.98938 | 27211 ft | 488 kts | 91° |
| 2026-05-05 12:08 | 41.17088 | -69.94412 | 27477 ft | 490 kts | 91° |
| 2026-05-05 12:08 | 41.17062 | -69.89896 | 27801 ft | 490 kts | 91° |
| 2026-05-05 12:08 | 41.17034 | -69.85388 | 28169 ft | 489 kts | 90° |
| 2026-05-05 12:08 | 41.17003 | -69.80875 | 28548 ft | 488 kts | 91° |
| 2026-05-05 12:09 | 41.16972 | -69.76373 | 28913 ft | 487 kts | 91° |
| 2026-05-05 12:09 | 41.16938 | -69.71874 | 29284 ft | 486 kts | 90° |
| 2026-05-05 12:09 | 41.16903 | -69.67382 | 29632 ft | 485 kts | 90° |
| 2026-05-05 12:09 | 41.16866 | -69.62920 | 29983 ft | 485 kts | 90° |
| 2026-05-05 12:10 | 41.16828 | -69.58434 | 30316 ft | 483 kts | 90° |
| 2026-05-05 12:10 | 41.16788 | -69.54032 | 30580 ft | 483 kts | 90° |
| 2026-05-05 12:10 | 41.16747 | -69.49576 | 30849 ft | 483 kts | 90° |
| 2026-05-05 12:10 | 41.16703 | -69.45120 | 31120 ft | 482 kts | 91° |
| 2026-05-05 12:11 | 41.16658 | -69.40674 | 31392 ft | 482 kts | 91° |
| 2026-05-05 12:11 | 41.16612 | -69.36231 | 31673 ft | 481 kts | 91° |
| 2026-05-05 12:11 | 41.16563 | -69.31777 | 31932 ft | 480 kts | 91° |
| 2026-05-05 12:11 | 41.16513 | -69.27355 | 32181 ft | 480 kts | 91° |
| 2026-05-05 12:12 | 41.16462 | -69.22922 | 32445 ft | 479 kts | 91° |
| 2026-05-05 12:12 | 41.16408 | -69.18497 | 32700 ft | 479 kts | 91° |
| 2026-05-05 12:12 | 41.16353 | -69.14064 | 32938 ft | 479 kts | 91° |
| 2026-05-05 12:12 | 41.16297 | -69.09648 | 33183 ft | 478 kts | 91° |
| 2026-05-05 12:13 | 41.16239 | -69.05244 | 33422 ft | 478 kts | 91° |
| 2026-05-05 12:13 | 41.16179 | -69.00831 | 33652 ft | 477 kts | 91° |
| 2026-05-05 12:13 | 41.16119 | -68.96493 | 33876 ft | 477 kts | 91° |
| 2026-05-05 12:13 | 41.16056 | -68.92082 | 34085 ft | 477 kts | 91° |
| 2026-05-05 12:14 | 41.15991 | -68.87683 | 34269 ft | 477 kts | 91° |
| 2026-05-05 12:14 | 41.15924 | -68.83274 | 34450 ft | 477 kts | 91° |
| 2026-05-05 12:14 | 41.15856 | -68.78868 | 34612 ft | 477 kts | 91° |
| 2026-05-05 12:14 | 41.15786 | -68.74459 | 34784 ft | 477 kts | 91° |
| 2026-05-05 12:15 | 41.15715 | -68.70106 | 34938 ft | 477 kts | 91° |
| 2026-05-05 12:15 | 41.15642 | -68.65700 | 35060 ft | 477 kts | 91° |
| 2026-05-05 12:15 | 41.15491 | -68.56903 | 35077 ft | 476 kts | 91° |
| 2026-05-05 12:16 | 41.15333 | -68.48117 | 35073 ft | 476 kts | 91° |
| 2026-05-05 12:16 | 41.15168 | -68.39314 | 35075 ft | 477 kts | 91° |
| 2026-05-05 12:17 | 41.14997 | -68.30527 | 35081 ft | 477 kts | 91° |
| 2026-05-05 12:17 | 41.14819 | -68.21733 | 35081 ft | 477 kts | 91° |
| 2026-05-05 12:18 | 41.14635 | -68.12987 | 35087 ft | 477 kts | 91° |
| 2026-05-05 12:18 | 41.14443 | -68.04129 | 35083 ft | 477 kts | 91° |
| 2026-05-05 12:19 | 41.14246 | -67.95378 | 35087 ft | 477 kts | 91° |
| 2026-05-05 12:19 | 41.14040 | -67.86556 | 35090 ft | 477 kts | 91° |
| 2026-05-05 12:20 | 41.13828 | -67.77742 | 35094 ft | 478 kts | 91° |
| 2026-05-05 12:20 | 41.13611 | -67.68972 | 35097 ft | 478 kts | 91° |
| 2026-05-05 12:21 | 41.13385 | -67.60146 | 35102 ft | 478 kts | 91° |
| 2026-05-05 12:21 | 41.13153 | -67.51331 | 35108 ft | 478 kts | 91° |
| 2026-05-05 12:22 | 41.12914 | -67.42511 | 35107 ft | 479 kts | 91° |
| 2026-05-05 12:22 | 41.12669 | -67.33683 | 35109 ft | 479 kts | 91° |
| 2026-05-05 12:23 | 41.12419 | -67.24855 | 35113 ft | 479 kts | 91° |
| 2026-05-05 12:23 | 41.12163 | -67.16027 | 35119 ft | 479 kts | 91° |
| 2026-05-05 12:24 | 41.11899 | -67.07191 | 35118 ft | 480 kts | 91° |
| 2026-05-05 12:24 | 41.11754 | -66.98405 | 35121 ft | 479 kts | 87° |
| 2026-05-05 12:25 | 41.11908 | -66.89554 | 35125 ft | 480 kts | 88° |
| 2026-05-05 12:25 | 41.12018 | -66.80715 | 35128 ft | 480 kts | 88° |
| 2026-05-05 12:26 | 41.12120 | -66.71870 | 35128 ft | 480 kts | 88° |
| 2026-05-05 12:26 | 41.12214 | -66.63008 | 35130 ft | 480 kts | 88° |
| 2026-05-05 12:27 | 41.12302 | -66.54137 | 35132 ft | 480 kts | 88° |
| 2026-05-05 12:27 | 41.12382 | -66.45281 | 35130 ft | 481 kts | 88° |
| 2026-05-05 12:28 | 41.12456 | -66.36411 | 35134 ft | 481 kts | 88° |
| 2026-05-05 12:28 | 41.12524 | -66.27547 | 35136 ft | 481 kts | 88° |
| 2026-05-05 12:29 | 41.12584 | -66.18654 | 35139 ft | 481 kts | 89° |
| 2026-05-05 12:29 | 41.12638 | -66.09821 | 35140 ft | 482 kts | 89° |
| 2026-05-05 12:30 | 41.12685 | -66.00924 | 35146 ft | 482 kts | 89° |
| 2026-05-05 12:30 | 41.12725 | -65.92018 | 35150 ft | 482 kts | 89° |
| 2026-05-05 12:31 | 41.12758 | -65.83174 | 35150 ft | 483 kts | 89° |
| 2026-05-05 12:31 | 41.12785 | -65.74272 | 35151 ft | 483 kts | 89° |
| 2026-05-05 12:32 | 41.12804 | -65.65361 | 35157 ft | 483 kts | 89° |
| 2026-05-05 12:32 | 41.12817 | -65.56432 | 35154 ft | 484 kts | 89° |
| 2026-05-05 12:33 | 41.12823 | -65.47511 | 35161 ft | 484 kts | 89° |
| 2026-05-05 12:33 | 41.12822 | -65.38571 | 35163 ft | 484 kts | 89° |
| 2026-05-05 12:34 | 41.12814 | -65.29639 | 35165 ft | 485 kts | 89° |
| 2026-05-05 12:34 | 41.12799 | -65.20698 | 35168 ft | 485 kts | 89° |
| 2026-05-05 12:35 | 41.12778 | -65.11741 | 35167 ft | 485 kts | 89° |
| 2026-05-05 12:35 | 41.12749 | -65.02788 | 35176 ft | 486 kts | 89° |
| 2026-05-05 12:36 | 41.12713 | -64.93811 | 35174 ft | 486 kts | 89° |
| 2026-05-05 12:36 | 41.12671 | -64.84845 | 35177 ft | 486 kts | 89° |
| 2026-05-05 12:37 | 41.12621 | -64.75923 | 35182 ft | 487 kts | 89° |
| 2026-05-05 12:37 | 41.12565 | -64.66947 | 35178 ft | 487 kts | 89° |
| 2026-05-05 12:38 | 41.12501 | -64.57974 | 35185 ft | 487 kts | 89° |
| 2026-05-05 12:38 | 41.12431 | -64.48974 | 35184 ft | 487 kts | 89° |
| 2026-05-05 12:39 | 41.12353 | -64.39977 | 35187 ft | 488 kts | 89° |
| 2026-05-05 12:39 | 41.12268 | -64.30988 | 35187 ft | 488 kts | 90° |
| 2026-05-05 12:40 | 41.12176 | -64.21971 | 35193 ft | 488 kts | 90° |
| 2026-05-05 12:40 | 41.12079 | -64.13025 | 35194 ft | 488 kts | 90° |
| 2026-05-05 12:41 | 41.11973 | -64.04011 | 35197 ft | 489 kts | 90° |
| 2026-05-05 12:41 | 41.11859 | -63.94968 | 35195 ft | 489 kts | 90° |
| 2026-05-05 12:42 | 41.11740 | -63.85960 | 35195 ft | 489 kts | 90° |
| 2026-05-05 12:42 | 41.11612 | -63.76930 | 35195 ft | 489 kts | 90° |
| 2026-05-05 12:43 | 41.11478 | -63.67909 | 35199 ft | 490 kts | 90° |
| 2026-05-05 12:43 | 41.11337 | -63.58877 | 35199 ft | 490 kts | 90° |
| 2026-05-05 12:44 | 41.11188 | -63.49823 | 35198 ft | 490 kts | 90° |
| 2026-05-05 12:44 | 41.11033 | -63.40782 | 35200 ft | 491 kts | 90° |
| 2026-05-05 12:45 | 41.10871 | -63.31788 | 35204 ft | 491 kts | 90° |
| 2026-05-05 12:45 | 41.10701 | -63.22725 | 35203 ft | 491 kts | 90° |
| 2026-05-05 12:46 | 41.10523 | -63.13661 | 35206 ft | 492 kts | 90° |
| 2026-05-05 12:46 | 41.10339 | -63.04596 | 35205 ft | 492 kts | 91° |
| 2026-05-05 12:47 | 41.10180 | -62.97053 | 35209 ft | 492 kts | 91° |
| 2026-05-05 12:47 | 41.09982 | -62.87969 | 35208 ft | 493 kts | 91° |
| 2026-05-05 12:48 | 41.09776 | -62.78858 | 35216 ft | 493 kts | 91° |
| 2026-05-05 12:48 | 41.09565 | -62.69817 | 35216 ft | 494 kts | 91° |
| 2026-05-05 12:49 | 41.09346 | -62.60723 | 35213 ft | 494 kts | 91° |
| 2026-05-05 12:49 | 41.09118 | -62.51600 | 35220 ft | 495 kts | 91° |
| 2026-05-05 12:50 | 41.08884 | -62.42485 | 35216 ft | 495 kts | 91° |
| 2026-05-05 12:50 | 41.08642 | -62.33351 | 35219 ft | 495 kts | 91° |
| 2026-05-05 12:51 | 41.08393 | -62.24225 | 35218 ft | 496 kts | 91° |
| 2026-05-05 12:51 | 41.08136 | -62.15085 | 35215 ft | 496 kts | 91° |
| 2026-05-05 12:52 | 41.07872 | -62.05951 | 35219 ft | 496 kts | 91° |
| 2026-05-05 12:52 | 41.07602 | -61.96866 | 35223 ft | 497 kts | 91° |
| 2026-05-05 12:53 | 41.07323 | -61.87710 | 35229 ft | 497 kts | 91° |
| 2026-05-05 12:53 | 41.07037 | -61.78551 | 35226 ft | 497 kts | 92° |
| 2026-05-05 12:54 | 41.06594 | -61.64811 | 35230 ft | 498 kts | 92° |
| 2026-05-05 12:55 | 41.06289 | -61.55644 | 35228 ft | 498 kts | 92° |
| 2026-05-05 12:55 | 41.05977 | -61.46478 | 35226 ft | 498 kts | 92° |
| 2026-05-05 12:56 | 41.05658 | -61.37314 | 35233 ft | 498 kts | 92° |
| 2026-05-05 12:56 | 41.05330 | -61.28119 | 35230 ft | 499 kts | 92° |
| 2026-05-05 12:57 | 41.04995 | -61.18940 | 35236 ft | 499 kts | 92° |
| 2026-05-05 12:57 | 41.04653 | -61.09739 | 35237 ft | 500 kts | 92° |
| 2026-05-05 12:58 | 41.04305 | -61.00599 | 35242 ft | 500 kts | 92° |
| 2026-05-05 12:58 | 41.03945 | -60.91329 | 35243 ft | 500 kts | 92° |
| 2026-05-05 12:59 | 41.03583 | -60.82187 | 35243 ft | 501 kts | 93° |
| 2026-05-05 12:59 | 41.03211 | -60.72980 | 35246 ft | 501 kts | 93° |
| 2026-05-05 13:00 | 41.02640 | -60.59135 | 35254 ft | 502 kts | 93° |
| 2026-05-05 13:01 | 41.01855 | -60.40666 | 35252 ft | 503 kts | 93° |
| 2026-05-05 13:01 | 41.01451 | -60.31414 | 35255 ft | 503 kts | 93° |
| 2026-05-05 13:02 | 41.01040 | -60.22165 | 35261 ft | 503 kts | 94° |
| 2026-05-05 13:02 | 41.00625 | -60.12971 | 35260 ft | 503 kts | 94° |
| 2026-05-05 13:03 | 41.00199 | -60.03711 | 35261 ft | 504 kts | 94° |
| 2026-05-05 13:03 | 41.00139 | -59.94437 | 35272 ft | 504 kts | 89° |
| 2026-05-05 13:04 | 41.00313 | -59.85158 | 35265 ft | 504 kts | 88° |
| 2026-05-05 13:04 | 41.00496 | -59.75886 | 35274 ft | 504 kts | 88° |
| 2026-05-05 13:05 | 41.00672 | -59.66675 | 35269 ft | 504 kts | 89° |
| 2026-05-05 13:05 | 41.00842 | -59.57388 | 35268 ft | 504 kts | 89° |
| 2026-05-05 13:06 | 41.01005 | -59.48105 | 35275 ft | 504 kts | 89° |
| 2026-05-05 13:06 | 41.01161 | -59.38811 | 35270 ft | 504 kts | 89° |
| 2026-05-05 13:07 | 41.01309 | -59.29523 | 35275 ft | 505 kts | 89° |
| 2026-05-05 13:07 | 41.01449 | -59.20217 | 35276 ft | 505 kts | 90° |
| 2026-05-05 13:08 | 41.01581 | -59.10968 | 35278 ft | 506 kts | 90° |
| 2026-05-05 13:08 | 41.01708 | -59.01624 | 35274 ft | 507 kts | 90° |
| 2026-05-05 13:09 | 41.01827 | -58.92266 | 35280 ft | 508 kts | 90° |
| 2026-05-05 13:09 | 41.01938 | -58.82886 | 35280 ft | 509 kts | 91° |
| 2026-05-05 13:10 | 41.02042 | -58.73482 | 35284 ft | 511 kts | 91° |
| 2026-05-05 13:10 | 41.02139 | -58.64076 | 35283 ft | 512 kts | 91° |
| 2026-05-05 13:11 | 41.02228 | -58.54645 | 35284 ft | 513 kts | 91° |
| 2026-05-05 13:11 | 41.02309 | -58.45246 | 35286 ft | 514 kts | 92° |
| 2026-05-05 13:12 | 41.02383 | -58.35769 | 35287 ft | 515 kts | 92° |
| 2026-05-05 13:12 | 41.02450 | -58.26264 | 35284 ft | 516 kts | 92° |
| 2026-05-05 13:13 | 41.02509 | -58.16748 | 35285 ft | 518 kts | 92° |
| 2026-05-05 13:13 | 41.02560 | -58.07199 | 35287 ft | 519 kts | 93° |
| 2026-05-05 13:14 | 41.02603 | -57.97642 | 35290 ft | 520 kts | 93° |
| 2026-05-05 13:14 | 41.02639 | -57.88066 | 35290 ft | 520 kts | 93° |
| 2026-05-05 13:15 | 41.02666 | -57.78464 | 35290 ft | 521 kts | 93° |
| 2026-05-05 13:15 | 41.02686 | -57.68934 | 35288 ft | 522 kts | 94° |
| 2026-05-05 13:16 | 41.02698 | -57.59266 | 35287 ft | 524 kts | 94° |
| 2026-05-05 13:16 | 41.02702 | -57.49612 | 35287 ft | 525 kts | 94° |
| 2026-05-05 13:17 | 41.02697 | -57.39937 | 35290 ft | 526 kts | 94° |
| 2026-05-05 13:17 | 41.02684 | -57.30229 | 35291 ft | 527 kts | 94° |
| 2026-05-05 13:18 | 41.02664 | -57.20523 | 35293 ft | 528 kts | 95° |
| 2026-05-05 13:18 | 41.02635 | -57.10774 | 35291 ft | 529 kts | 95° |
| 2026-05-05 13:19 | 41.02598 | -57.01018 | 35289 ft | 530 kts | 95° |
| 2026-05-05 13:19 | 41.02553 | -56.91310 | 35292 ft | 531 kts | 95° |
| 2026-05-05 13:20 | 41.02499 | -56.81537 | 35297 ft | 531 kts | 95° |
| 2026-05-05 13:20 | 41.02437 | -56.71736 | 35289 ft | 532 kts | 96° |
| 2026-05-05 13:21 | 41.02366 | -56.61917 | 35295 ft | 533 kts | 96° |
| 2026-05-05 13:21 | 41.02288 | -56.52146 | 35290 ft | 534 kts | 96° |
| 2026-05-05 13:22 | 41.02200 | -56.42289 | 35291 ft | 535 kts | 96° |
| 2026-05-05 13:22 | 41.02104 | -56.32416 | 35291 ft | 536 kts | 96° |
| 2026-05-05 13:23 | 41.01999 | -56.22548 | 35300 ft | 536 kts | 97° |
| 2026-05-05 13:23 | 41.01886 | -56.12657 | 35300 ft | 537 kts | 97° |
| 2026-05-05 13:24 | 41.01765 | -56.02761 | 35304 ft | 538 kts | 97° |
| 2026-05-05 13:24 | 41.01635 | -55.92911 | 35303 ft | 538 kts | 97° |
| 2026-05-05 13:25 | 41.01496 | -55.82983 | 35302 ft | 539 kts | 97° |
| 2026-05-05 13:25 | 41.01348 | -55.73059 | 35304 ft | 539 kts | 97° |
| 2026-05-05 13:26 | 41.01192 | -55.63102 | 35305 ft | 540 kts | 98° |
| 2026-05-05 13:26 | 41.01026 | -55.53138 | 35308 ft | 541 kts | 98° |
| 2026-05-05 13:27 | 41.00855 | -55.43231 | 35308 ft | 542 kts | 98° |
| 2026-05-05 13:27 | 41.00676 | -55.33249 | 35303 ft | 542 kts | 98° |
| 2026-05-05 13:28 | 41.00487 | -55.23240 | 35307 ft | 543 kts | 98° |
| 2026-05-05 13:28 | 41.00290 | -55.13229 | 35307 ft | 544 kts | 98° |
| 2026-05-05 13:29 | 41.00085 | -55.03204 | 35310 ft | 545 kts | 98° |
| 2026-05-05 13:29 | 40.99361 | -54.93316 | 35318 ft | 539 kts | 105° |
| 2026-05-05 13:30 | 40.98429 | -54.83459 | 35313 ft | 540 kts | 105° |
| 2026-05-05 13:30 | 40.97486 | -54.73653 | 35312 ft | 541 kts | 105° |
| 2026-05-05 13:31 | 40.96527 | -54.63772 | 35315 ft | 541 kts | 106° |
| 2026-05-05 13:31 | 40.95557 | -54.53868 | 35311 ft | 542 kts | 106° |
| 2026-05-05 13:32 | 40.94578 | -54.43963 | 35313 ft | 543 kts | 106° |
| 2026-05-05 13:32 | 40.93591 | -54.34061 | 35315 ft | 544 kts | 106° |
| 2026-05-05 13:33 | 40.92594 | -54.24149 | 35325 ft | 544 kts | 107° |
| 2026-05-05 13:33 | 40.91757 | -54.15889 | 35325 ft | 545 kts | 107° |
| 2026-05-05 13:34 | 40.90577 | -54.04349 | 35327 ft | 545 kts | 107° |
| 2026-05-05 13:34 | 40.89719 | -53.96035 | 35329 ft | 545 kts | 107° |
| 2026-05-05 13:35 | 40.88687 | -53.86111 | 35326 ft | 545 kts | 107° |
| 2026-05-05 13:35 | 40.87650 | -53.76224 | 35329 ft | 546 kts | 107° |
| 2026-05-05 13:36 | 40.86601 | -53.66303 | 35328 ft | 545 kts | 107° |
| 2026-05-05 13:36 | 40.85543 | -53.56388 | 35331 ft | 545 kts | 107° |
| 2026-05-05 13:37 | 40.84479 | -53.46493 | 35335 ft | 544 kts | 107° |
| 2026-05-05 13:37 | 40.83407 | -53.36607 | 35334 ft | 544 kts | 107° |
| 2026-05-05 13:38 | 40.82327 | -53.26721 | 35335 ft | 543 kts | 107° |
| 2026-05-05 13:38 | 40.81237 | -53.16837 | 35340 ft | 542 kts | 107° |
| 2026-05-05 13:39 | 40.80152 | -53.07070 | 35345 ft | 542 kts | 108° |
| 2026-05-05 13:39 | 40.79049 | -52.97216 | 35345 ft | 541 kts | 108° |
| 2026-05-05 13:40 | 40.77941 | -52.87401 | 35340 ft | 541 kts | 108° |
| 2026-05-05 13:40 | 40.76825 | -52.77590 | 35349 ft | 540 kts | 108° |
| 2026-05-05 13:41 | 40.75702 | -52.67792 | 35348 ft | 540 kts | 108° |
| 2026-05-05 13:41 | 40.74569 | -52.57985 | 35349 ft | 540 kts | 108° |
| 2026-05-05 13:42 | 40.73429 | -52.48187 | 35354 ft | 539 kts | 108° |
| 2026-05-05 13:42 | 40.72282 | -52.38414 | 35358 ft | 539 kts | 108° |
| 2026-05-05 13:43 | 40.71127 | -52.28639 | 35353 ft | 539 kts | 108° |
| 2026-05-05 13:43 | 40.69974 | -52.18959 | 35361 ft | 539 kts | 108° |
| 2026-05-05 13:44 | 40.68806 | -52.09216 | 35359 ft | 538 kts | 108° |
| 2026-05-05 13:44 | 40.67629 | -51.99470 | 35361 ft | 538 kts | 108° |
| 2026-05-05 13:45 | 40.66447 | -51.89756 | 35355 ft | 537 kts | 108° |
| 2026-05-05 13:45 | 40.65253 | -51.80017 | 35356 ft | 537 kts | 108° |
| 2026-05-05 13:46 | 40.64052 | -51.70292 | 35356 ft | 538 kts | 108° |
| 2026-05-05 13:46 | 40.62841 | -51.60551 | 35361 ft | 539 kts | 108° |
| 2026-05-05 13:47 | 40.61628 | -51.50869 | 35362 ft | 541 kts | 108° |
| 2026-05-05 13:47 | 40.60396 | -51.41098 | 35365 ft | 542 kts | 108° |
| 2026-05-05 13:48 | 40.59154 | -51.31317 | 35365 ft | 542 kts | 108° |
| 2026-05-05 13:48 | 40.57902 | -51.21525 | 35366 ft | 543 kts | 108° |
| 2026-05-05 13:49 | 40.56636 | -51.11701 | 35364 ft | 544 kts | 108° |
| 2026-05-05 13:49 | 40.55364 | -51.01893 | 35362 ft | 544 kts | 108° |
| 2026-05-05 13:50 | 40.54081 | -50.92070 | 35370 ft | 544 kts | 108° |
| 2026-05-05 13:50 | 40.52793 | -50.82277 | 35368 ft | 544 kts | 108° |
| 2026-05-05 13:51 | 40.51497 | -50.72479 | 35370 ft | 544 kts | 108° |
| 2026-05-05 13:51 | 40.50191 | -50.62682 | 35370 ft | 544 kts | 108° |
| 2026-05-05 13:52 | 40.48877 | -50.52889 | 35367 ft | 544 kts | 108° |
| 2026-05-05 13:52 | 40.47563 | -50.43158 | 35372 ft | 544 kts | 108° |
| 2026-05-05 13:53 | 40.46235 | -50.33385 | 35370 ft | 544 kts | 108° |
| 2026-05-05 13:53 | 40.44894 | -50.23589 | 35370 ft | 544 kts | 108° |
| 2026-05-05 13:54 | 40.43548 | -50.13818 | 35370 ft | 544 kts | 108° |
| 2026-05-05 13:54 | 40.42191 | -50.04032 | 35366 ft | 544 kts | 108° |
| 2026-05-05 13:55 | 40.40829 | -49.94272 | 35366 ft | 544 kts | 108° |
| 2026-05-05 13:55 | 40.39468 | -49.84582 | 35370 ft | 544 kts | 108° |
| 2026-05-05 13:56 | 40.38085 | -49.74796 | 35370 ft | 544 kts | 108° |
| 2026-05-05 13:56 | 40.36697 | -49.65035 | 35369 ft | 544 kts | 108° |
| 2026-05-05 13:57 | 40.35301 | -49.55285 | 35368 ft | 544 kts | 108° |
| 2026-05-05 13:57 | 40.33897 | -49.45541 | 35369 ft | 544 kts | 108° |
| 2026-05-05 13:58 | 40.32487 | -49.35810 | 35370 ft | 544 kts | 108° |
| 2026-05-05 13:58 | 40.31076 | -49.26133 | 35364 ft | 543 kts | 108° |
| 2026-05-05 13:59 | 40.28935 | -49.11565 | 35369 ft | 543 kts | 108° |
| 2026-05-05 14:00 | 40.27021 | -48.98648 | 35369 ft | 542 kts | 108° |
| 2026-05-05 14:00 | 40.25329 | -48.87323 | 35369 ft | 542 kts | 108° |
| 2026-05-05 14:01 | 40.23875 | -48.77649 | 35366 ft | 542 kts | 108° |
| 2026-05-05 14:01 | 40.22409 | -48.67952 | 35367 ft | 542 kts | 108° |
| 2026-05-05 14:02 | 40.20947 | -48.58345 | 35377 ft | 542 kts | 108° |
| 2026-05-05 14:02 | 40.19468 | -48.48678 | 35370 ft | 542 kts | 108° |
| 2026-05-05 14:03 | 40.17978 | -48.38995 | 35367 ft | 542 kts | 108° |
| 2026-05-05 14:03 | 40.16480 | -48.29315 | 35372 ft | 543 kts | 108° |
| 2026-05-05 14:04 | 40.14973 | -48.19639 | 35372 ft | 543 kts | 108° |
| 2026-05-05 14:04 | 40.13467 | -48.10028 | 35368 ft | 543 kts | 108° |
| 2026-05-05 14:05 | 40.11942 | -48.00346 | 35369 ft | 543 kts | 108° |
| 2026-05-05 14:05 | 40.10412 | -47.90685 | 35369 ft | 543 kts | 108° |
| 2026-05-05 14:06 | 40.08872 | -47.81018 | 35372 ft | 543 kts | 108° |
| 2026-05-05 14:06 | 40.07323 | -47.71351 | 35373 ft | 543 kts | 108° |
| 2026-05-05 14:07 | 40.05779 | -47.61769 | 35373 ft | 543 kts | 108° |
| 2026-05-05 14:07 | 40.04219 | -47.52143 | 35367 ft | 542 kts | 108° |
| 2026-05-05 14:08 | 40.02648 | -47.42496 | 35367 ft | 542 kts | 108° |
| 2026-05-05 14:08 | 40.01072 | -47.32877 | 35364 ft | 542 kts | 108° |
| 2026-05-05 14:09 | 39.99487 | -47.23254 | 35363 ft | 542 kts | 108° |
| 2026-05-05 14:09 | 39.97894 | -47.13636 | 35361 ft | 542 kts | 108° |
| 2026-05-05 14:10 | 39.96299 | -47.04060 | 35359 ft | 543 kts | 108° |
| 2026-05-05 14:10 | 39.94691 | -46.94458 | 35360 ft | 543 kts | 108° |
| 2026-05-05 14:11 | 39.93071 | -46.84832 | 35360 ft | 543 kts | 108° |
| 2026-05-05 14:11 | 39.91445 | -46.75227 | 35357 ft | 544 kts | 108° |
| 2026-05-05 14:12 | 39.89807 | -46.65597 | 35353 ft | 544 kts | 108° |
| 2026-05-05 14:12 | 39.88160 | -46.55969 | 35354 ft | 544 kts | 108° |
| 2026-05-05 14:13 | 39.86503 | -46.46338 | 35353 ft | 545 kts | 108° |
| 2026-05-05 14:13 | 39.84840 | -46.36719 | 35355 ft | 545 kts | 108° |
| 2026-05-05 14:14 | 39.83171 | -46.27109 | 35348 ft | 545 kts | 108° |
| 2026-05-05 14:14 | 39.81501 | -46.17556 | 35349 ft | 545 kts | 108° |
| 2026-05-05 14:15 | 39.79809 | -46.07919 | 35350 ft | 545 kts | 108° |
| 2026-05-05 14:15 | 39.78115 | -45.98321 | 35350 ft | 544 kts | 108° |
| 2026-05-05 14:16 | 39.76422 | -45.88780 | 35347 ft | 544 kts | 108° |
| 2026-05-05 14:16 | 39.74710 | -45.79181 | 35344 ft | 544 kts | 108° |
| 2026-05-05 14:17 | 39.72994 | -45.69609 | 35344 ft | 544 kts | 108° |
| 2026-05-05 14:17 | 39.71269 | -45.60032 | 35347 ft | 544 kts | 108° |
| 2026-05-05 14:18 | 39.69535 | -45.50458 | 35341 ft | 544 kts | 108° |
| 2026-05-05 14:18 | 39.67795 | -45.40895 | 35339 ft | 544 kts | 108° |
| 2026-05-05 14:19 | 39.66059 | -45.31405 | 35338 ft | 544 kts | 108° |
| 2026-05-05 14:19 | 39.64307 | -45.21872 | 35336 ft | 543 kts | 108° |
| 2026-05-05 14:20 | 39.62545 | -45.12334 | 35333 ft | 543 kts | 108° |
| 2026-05-05 14:20 | 39.60776 | -45.02801 | 35333 ft | 543 kts | 108° |
| 2026-05-05 14:21 | 39.59300 | -44.94887 | 35328 ft | 542 kts | 108° |
| 2026-05-05 14:21 | 39.57520 | -44.85383 | 35329 ft | 542 kts | 108° |
| 2026-05-05 14:22 | 39.55736 | -44.75902 | 35329 ft | 541 kts | 108° |
| 2026-05-05 14:22 | 39.53945 | -44.66431 | 35328 ft | 541 kts | 108° |
| 2026-05-05 14:23 | 39.52148 | -44.56975 | 35343 ft | 541 kts | 108° |
| 2026-05-05 14:23 | 39.50344 | -44.47525 | 35325 ft | 539 kts | 108° |
| 2026-05-05 14:24 | 39.48533 | -44.38087 | 35332 ft | 539 kts | 108° |
| 2026-05-05 14:24 | 39.46726 | -44.28715 | 35331 ft | 539 kts | 108° |
| 2026-05-05 14:25 | 39.44901 | -44.19289 | 35330 ft | 539 kts | 108° |
| 2026-05-05 14:25 | 39.43072 | -44.09888 | 35332 ft | 539 kts | 108° |
| 2026-05-05 14:26 | 39.41246 | -44.00548 | 35328 ft | 538 kts | 108° |
| 2026-05-05 14:26 | 39.39401 | -43.91150 | 35326 ft | 538 kts | 108° |
| 2026-05-05 14:27 | 39.37552 | -43.81779 | 35331 ft | 538 kts | 108° |
| 2026-05-05 14:27 | 39.35696 | -43.72410 | 35326 ft | 538 kts | 108° |
| 2026-05-05 14:28 | 39.33830 | -43.63042 | 35327 ft | 538 kts | 108° |
| 2026-05-05 14:28 | 39.31962 | -43.53700 | 35318 ft | 537 kts | 108° |
| 2026-05-05 14:29 | 39.30082 | -43.44345 | 35326 ft | 537 kts | 108° |
| 2026-05-05 14:29 | 39.28211 | -43.35073 | 35315 ft | 537 kts | 108° |
| 2026-05-05 14:30 | 39.26321 | -43.25741 | 35321 ft | 537 kts | 108° |
| 2026-05-05 14:30 | 39.24425 | -43.16416 | 35321 ft | 536 kts | 108° |
| 2026-05-05 14:31 | 39.22521 | -43.07091 | 35316 ft | 536 kts | 108° |
| 2026-05-05 14:31 | 39.20627 | -42.97857 | 35323 ft | 536 kts | 108° |
| 2026-05-05 14:32 | 39.18714 | -42.88572 | 35303 ft | 535 kts | 108° |
| 2026-05-05 14:32 | 39.16797 | -42.79302 | 35314 ft | 536 kts | 108° |
| 2026-05-05 14:33 | 39.14873 | -42.70037 | 35320 ft | 535 kts | 108° |
| 2026-05-05 14:33 | 39.12944 | -42.60786 | 35317 ft | 534 kts | 108° |
| 2026-05-05 14:34 | 39.11009 | -42.51549 | 35329 ft | 534 kts | 108° |
| 2026-05-05 14:34 | 39.09079 | -42.42370 | 35313 ft | 533 kts | 108° |
| 2026-05-05 14:35 | 39.07135 | -42.33167 | 35312 ft | 533 kts | 108° |
| 2026-05-05 14:35 | 39.05184 | -42.23961 | 35317 ft | 533 kts | 108° |
| 2026-05-05 14:36 | 39.03225 | -42.14762 | 35316 ft | 532 kts | 108° |
| 2026-05-05 14:36 | 39.01258 | -42.05583 | 35318 ft | 532 kts | 109° |
| 2026-05-05 14:37 | 38.99959 | -42.01232 | 35299 ft | 524 kts | 123° |
| 2026-05-05 14:37 | 38.97907 | -41.97461 | 35316 ft | 510 kts | 139° |
| 2026-05-05 14:37 | 38.92976 | -41.90871 | 35315 ft | 512 kts | 140° |
| 2026-05-05 14:38 | 38.87992 | -41.84342 | 35318 ft | 511 kts | 140° |
| 2026-05-05 14:38 | 38.82984 | -41.77833 | 35320 ft | 512 kts | 140° |
| 2026-05-05 14:39 | 38.77981 | -41.71347 | 35321 ft | 511 kts | 140° |
| 2026-05-05 14:39 | 38.72971 | -41.64866 | 35323 ft | 511 kts | 140° |
| 2026-05-05 14:40 | 38.67984 | -41.58426 | 35331 ft | 511 kts | 140° |
| 2026-05-05 14:40 | 38.62968 | -41.51963 | 35329 ft | 511 kts | 140° |
| 2026-05-05 14:41 | 38.57945 | -41.45505 | 35327 ft | 512 kts | 140° |
| 2026-05-05 14:41 | 38.52916 | -41.39054 | 35328 ft | 512 kts | 140° |
| 2026-05-05 14:42 | 38.47883 | -41.32610 | 35330 ft | 512 kts | 140° |
| 2026-05-05 14:42 | 38.42883 | -41.26222 | 35337 ft | 512 kts | 140° |
| 2026-05-05 14:43 | 38.37842 | -41.19795 | 35336 ft | 512 kts | 140° |
| 2026-05-05 14:43 | 38.32801 | -41.13381 | 35332 ft | 512 kts | 140° |
| 2026-05-05 14:44 | 38.27757 | -41.06977 | 35338 ft | 512 kts | 140° |
| 2026-05-05 14:44 | 38.22711 | -41.00584 | 35336 ft | 512 kts | 140° |
| 2026-05-05 14:45 | 38.17692 | -40.94238 | 35341 ft | 512 kts | 140° |
| 2026-05-05 14:45 | 38.12640 | -40.87864 | 35342 ft | 512 kts | 140° |
| 2026-05-05 14:46 | 38.07580 | -40.81492 | 35346 ft | 512 kts | 140° |
| 2026-05-05 14:46 | 38.02527 | -40.75143 | 35339 ft | 511 kts | 140° |
| 2026-05-05 14:47 | 37.97470 | -40.68802 | 35345 ft | 511 kts | 139° |
| 2026-05-05 14:47 | 37.92408 | -40.62466 | 35339 ft | 511 kts | 139° |
| 2026-05-05 14:48 | 37.87347 | -40.56146 | 35352 ft | 511 kts | 139° |
| 2026-05-05 14:48 | 37.82281 | -40.49833 | 35345 ft | 511 kts | 139° |
| 2026-05-05 14:49 | 37.77255 | -40.43581 | 35351 ft | 511 kts | 139° |
| 2026-05-05 14:49 | 37.72167 | -40.37265 | 35354 ft | 511 kts | 139° |
| 2026-05-05 14:50 | 37.67091 | -40.30977 | 35357 ft | 511 kts | 139° |
| 2026-05-05 14:50 | 37.62014 | -40.24701 | 35356 ft | 511 kts | 139° |
| 2026-05-05 14:51 | 37.56929 | -40.18427 | 35360 ft | 511 kts | 139° |
| 2026-05-05 14:51 | 37.51842 | -40.12164 | 35359 ft | 511 kts | 139° |
| 2026-05-05 14:52 | 37.46755 | -40.05913 | 35358 ft | 511 kts | 139° |
| 2026-05-05 14:52 | 37.41693 | -39.99706 | 35360 ft | 511 kts | 139° |
| 2026-05-05 14:53 | 37.36609 | -39.93483 | 35360 ft | 510 kts | 139° |
| 2026-05-05 14:53 | 37.31513 | -39.87259 | 35363 ft | 510 kts | 139° |
| 2026-05-05 14:54 | 37.26429 | -39.81061 | 35360 ft | 509 kts | 139° |
| 2026-05-05 14:54 | 37.21348 | -39.74879 | 35363 ft | 508 kts | 139° |
| 2026-05-05 14:55 | 37.16308 | -39.68760 | 35374 ft | 507 kts | 139° |
| 2026-05-05 14:55 | 37.11235 | -39.62613 | 35370 ft | 506 kts | 139° |
| 2026-05-05 14:56 | 37.06166 | -39.56482 | 35370 ft | 506 kts | 139° |
| 2026-05-05 14:56 | 37.01088 | -39.50351 | 35371 ft | 506 kts | 139° |
| 2026-05-05 14:57 | 36.96055 | -39.44288 | 35367 ft | 506 kts | 139° |
| 2026-05-05 14:57 | 36.90961 | -39.38163 | 35374 ft | 506 kts | 138° |
| 2026-05-05 14:58 | 36.85876 | -39.32061 | 35380 ft | 507 kts | 138° |
| 2026-05-05 14:58 | 36.80786 | -39.25964 | 35374 ft | 507 kts | 138° |
| 2026-05-05 14:59 | 36.75721 | -39.19910 | 35378 ft | 507 kts | 138° |
| 2026-05-05 14:59 | 36.70620 | -39.13824 | 35370 ft | 508 kts | 138° |
| 2026-05-05 15:00 | 36.66375 | -39.08769 | 35373 ft | 507 kts | 138° |
| 2026-05-05 15:00 | 36.60407 | -39.01674 | 35370 ft | 508 kts | 138° |
| 2026-05-05 15:01 | 36.55293 | -38.95607 | 35366 ft | 508 kts | 138° |
| 2026-05-05 15:01 | 36.50165 | -38.89537 | 35377 ft | 508 kts | 138° |
| 2026-05-05 15:02 | 36.45073 | -38.83520 | 35366 ft | 508 kts | 138° |
| 2026-05-05 15:02 | 36.39947 | -38.77474 | 35380 ft | 508 kts | 138° |
| 2026-05-05 15:03 | 36.34819 | -38.71438 | 35374 ft | 508 kts | 138° |
| 2026-05-05 15:03 | 36.29676 | -38.65395 | 35373 ft | 508 kts | 137° |
| 2026-05-05 15:04 | 36.24542 | -38.59375 | 35366 ft | 508 kts | 137° |
| 2026-05-05 15:04 | 36.19416 | -38.53376 | 35377 ft | 507 kts | 137° |
| 2026-05-05 15:05 | 36.11742 | -38.44415 | 35373 ft | 507 kts | 137° |
| 2026-05-05 15:06 | 36.06601 | -38.38426 | 35373 ft | 507 kts | 137° |
| 2026-05-05 15:06 | 36.01453 | -38.32439 | 35374 ft | 507 kts | 137° |
| 2026-05-05 15:07 | 35.96313 | -38.26475 | 35373 ft | 507 kts | 137° |
| 2026-05-05 15:07 | 35.91161 | -38.20507 | 35373 ft | 507 kts | 137° |
| 2026-05-05 15:08 | 35.86016 | -38.14557 | 35373 ft | 507 kts | 137° |
| 2026-05-05 15:08 | 35.80865 | -38.08614 | 35370 ft | 507 kts | 137° |
| 2026-05-05 15:09 | 35.75716 | -38.02683 | 35371 ft | 507 kts | 137° |
| 2026-05-05 15:09 | 35.71433 | -37.97756 | 35370 ft | 507 kts | 137° |
| 2026-05-05 15:10 | 35.66276 | -37.91837 | 35369 ft | 507 kts | 137° |
| 2026-05-05 15:10 | 35.61121 | -37.85929 | 35371 ft | 507 kts | 137° |
| 2026-05-05 15:11 | 35.55963 | -37.80030 | 35369 ft | 507 kts | 137° |
| 2026-05-05 15:11 | 35.50792 | -37.74127 | 35369 ft | 506 kts | 137° |
| 2026-05-05 15:12 | 35.45631 | -37.68246 | 35366 ft | 506 kts | 137° |
| 2026-05-05 15:12 | 35.40506 | -37.62416 | 35364 ft | 506 kts | 137° |
| 2026-05-05 15:13 | 35.35349 | -37.56561 | 35364 ft | 506 kts | 137° |
| 2026-05-05 15:13 | 35.30182 | -37.50706 | 35361 ft | 505 kts | 137° |
| 2026-05-05 15:14 | 35.25013 | -37.44858 | 35361 ft | 505 kts | 137° |
| 2026-05-05 15:14 | 35.19853 | -37.39031 | 35360 ft | 505 kts | 137° |
| 2026-05-05 15:15 | 35.14687 | -37.33209 | 35360 ft | 505 kts | 137° |
| 2026-05-05 15:15 | 35.09509 | -37.27382 | 35360 ft | 505 kts | 137° |
| 2026-05-05 15:16 | 35.04338 | -37.21575 | 35361 ft | 505 kts | 137° |
| 2026-05-05 15:16 | 34.99170 | -37.15781 | 35359 ft | 505 kts | 137° |
| 2026-05-05 15:17 | 34.94029 | -37.10029 | 35361 ft | 505 kts | 136° |
| 2026-05-05 15:17 | 34.88843 | -37.04235 | 35361 ft | 505 kts | 137° |
| 2026-05-05 15:18 | 34.83658 | -36.98453 | 35360 ft | 504 kts | 136° |
| 2026-05-05 15:18 | 34.78512 | -36.92725 | 35361 ft | 504 kts | 136° |
| 2026-05-05 15:19 | 34.73335 | -36.86974 | 35358 ft | 504 kts | 136° |
| 2026-05-05 15:19 | 34.68152 | -36.81225 | 35362 ft | 504 kts | 136° |
| 2026-05-05 15:20 | 34.62976 | -36.75494 | 35357 ft | 504 kts | 136° |
| 2026-05-05 15:20 | 34.57817 | -36.69792 | 35356 ft | 503 kts | 136° |
| 2026-05-05 15:21 | 34.52631 | -36.64070 | 35356 ft | 503 kts | 136° |
| 2026-05-05 15:21 | 34.47452 | -36.58366 | 35358 ft | 503 kts | 136° |
| 2026-05-05 15:22 | 34.42264 | -36.52663 | 35357 ft | 503 kts | 136° |
| 2026-05-05 15:22 | 34.37074 | -36.46966 | 35355 ft | 503 kts | 136° |
| 2026-05-05 15:23 | 34.31880 | -36.41277 | 35353 ft | 503 kts | 136° |
| 2026-05-05 15:23 | 34.26696 | -36.35607 | 35353 ft | 503 kts | 136° |
| 2026-05-05 15:24 | 34.21503 | -36.29937 | 35353 ft | 503 kts | 136° |
| 2026-05-05 15:24 | 34.16300 | -36.24267 | 35351 ft | 503 kts | 136° |
| 2026-05-05 15:25 | 34.11105 | -36.18614 | 35347 ft | 503 kts | 136° |
| 2026-05-05 15:25 | 34.05934 | -36.12998 | 35348 ft | 503 kts | 136° |
| 2026-05-05 15:26 | 34.00727 | -36.07353 | 35348 ft | 503 kts | 136° |
| 2026-05-05 15:26 | 33.95521 | -36.01717 | 35338 ft | 503 kts | 136° |
| 2026-05-05 15:27 | 33.90303 | -35.96080 | 35342 ft | 503 kts | 136° |
| 2026-05-05 15:27 | 33.85085 | -35.90450 | 35342 ft | 504 kts | 136° |
| 2026-05-05 15:28 | 33.79868 | -35.84833 | 35332 ft | 504 kts | 136° |
| 2026-05-05 15:28 | 33.74678 | -35.79254 | 35351 ft | 504 kts | 136° |
| 2026-05-05 15:29 | 33.69416 | -35.73607 | 35335 ft | 504 kts | 136° |
| 2026-05-05 15:29 | 33.64219 | -35.68039 | 35333 ft | 504 kts | 136° |
| 2026-05-05 15:30 | 33.58980 | -35.62435 | 35336 ft | 504 kts | 136° |
| 2026-05-05 15:30 | 33.53744 | -35.56842 | 35339 ft | 504 kts | 136° |
| 2026-05-05 15:31 | 33.48492 | -35.51242 | 35332 ft | 504 kts | 136° |
| 2026-05-05 15:31 | 33.43246 | -35.45657 | 35325 ft | 504 kts | 136° |
| 2026-05-05 15:32 | 33.37996 | -35.40077 | 35332 ft | 504 kts | 136° |
| 2026-05-05 15:32 | 33.32747 | -35.34507 | 35330 ft | 505 kts | 136° |
| 2026-05-05 15:33 | 33.27520 | -35.28971 | 35332 ft | 504 kts | 136° |
| 2026-05-05 15:33 | 33.22268 | -35.23416 | 35317 ft | 504 kts | 136° |
| 2026-05-05 15:34 | 33.17004 | -35.17858 | 35316 ft | 504 kts | 136° |
| 2026-05-05 15:34 | 33.11743 | -35.12313 | 35313 ft | 505 kts | 136° |
| 2026-05-05 15:35 | 33.06479 | -35.06774 | 35314 ft | 504 kts | 136° |
| 2026-05-05 15:35 | 33.01208 | -35.01237 | 35322 ft | 505 kts | 136° |
| 2026-05-05 15:36 | 32.95591 | -34.96197 | 35317 ft | 506 kts | 141° |
| 2026-05-05 15:36 | 32.89950 | -34.91157 | 35311 ft | 506 kts | 141° |
| 2026-05-05 15:37 | 32.84368 | -34.86142 | 35309 ft | 506 kts | 141° |
| 2026-05-05 15:37 | 32.78742 | -34.81094 | 35308 ft | 507 kts | 141° |
| 2026-05-05 15:38 | 32.73110 | -34.76048 | 35303 ft | 507 kts | 141° |
| 2026-05-05 15:38 | 32.67470 | -34.71004 | 35303 ft | 507 kts | 141° |
| 2026-05-05 15:39 | 32.61829 | -34.65966 | 35305 ft | 507 kts | 141° |
| 2026-05-05 15:39 | 32.56184 | -34.60933 | 35305 ft | 508 kts | 141° |
| 2026-05-05 15:40 | 32.50570 | -34.55936 | 35304 ft | 508 kts | 141° |
| 2026-05-05 15:40 | 32.44910 | -34.50906 | 35298 ft | 508 kts | 140° |
| 2026-05-05 15:41 | 32.39250 | -34.45884 | 35292 ft | 508 kts | 140° |
| 2026-05-05 15:41 | 32.33591 | -34.40871 | 35405 ft | 509 kts | 140° |
| 2026-05-05 15:41 | 32.30754 | -34.38362 | 35640 ft | 508 kts | 140° |
| 2026-05-05 15:42 | 32.27930 | -34.35865 | 35893 ft | 507 kts | 140° |
| 2026-05-05 15:42 | 32.25103 | -34.33368 | 36154 ft | 506 kts | 140° |
| 2026-05-05 15:42 | 32.22292 | -34.30887 | 36445 ft | 503 kts | 140° |
| 2026-05-05 15:42 | 32.19496 | -34.28420 | 36698 ft | 502 kts | 140° |
| 2026-05-05 15:43 | 32.16699 | -34.25955 | 36941 ft | 500 kts | 140° |
| 2026-05-05 15:43 | 32.13908 | -34.23498 | 37166 ft | 499 kts | 140° |
| 2026-05-05 15:43 | 32.11126 | -34.21050 | 37308 ft | 498 kts | 140° |
| 2026-05-05 15:44 | 32.05572 | -34.16169 | 37274 ft | 496 kts | 140° |
| 2026-05-05 15:44 | 32.00065 | -34.11337 | 37287 ft | 497 kts | 140° |
| 2026-05-05 15:45 | 31.94518 | -34.06476 | 37286 ft | 497 kts | 140° |
| 2026-05-05 15:45 | 31.88972 | -34.01625 | 37282 ft | 497 kts | 140° |
| 2026-05-05 15:46 | 31.83425 | -33.96780 | 37282 ft | 497 kts | 140° |
| 2026-05-05 15:46 | 31.77869 | -33.91934 | 37279 ft | 497 kts | 140° |
| 2026-05-05 15:47 | 31.72310 | -33.87093 | 37275 ft | 497 kts | 140° |
| 2026-05-05 15:47 | 31.66752 | -33.82261 | 37278 ft | 497 kts | 140° |
| 2026-05-05 15:48 | 31.61190 | -33.77432 | 37272 ft | 497 kts | 140° |
| 2026-05-05 15:48 | 31.55669 | -33.72647 | 37273 ft | 497 kts | 140° |
| 2026-05-05 15:49 | 31.50105 | -33.67831 | 37269 ft | 497 kts | 140° |
| 2026-05-05 15:49 | 31.44543 | -33.63024 | 37272 ft | 497 kts | 139° |
| 2026-05-05 15:50 | 31.38978 | -33.58222 | 37272 ft | 496 kts | 139° |
| 2026-05-05 15:50 | 31.33419 | -33.53433 | 37267 ft | 496 kts | 139° |
| 2026-05-05 15:51 | 31.27855 | -33.48646 | 37265 ft | 496 kts | 139° |
| 2026-05-05 15:51 | 31.22287 | -33.43863 | 37267 ft | 496 kts | 139° |
| 2026-05-05 15:52 | 31.16729 | -33.39095 | 37262 ft | 496 kts | 139° |
| 2026-05-05 15:52 | 31.11193 | -33.34354 | 37258 ft | 496 kts | 139° |
| 2026-05-05 15:53 | 31.05629 | -33.29596 | 37260 ft | 496 kts | 139° |
| 2026-05-05 15:53 | 31.00061 | -33.24841 | 37254 ft | 495 kts | 139° |
| 2026-05-05 15:54 | 30.94493 | -33.20094 | 37252 ft | 495 kts | 139° |
| 2026-05-05 15:54 | 30.88933 | -33.15360 | 37255 ft | 495 kts | 139° |
| 2026-05-05 15:55 | 30.83369 | -33.10629 | 37249 ft | 495 kts | 139° |
| 2026-05-05 15:55 | 30.78746 | -33.06704 | 37247 ft | 495 kts | 139° |
| 2026-05-05 15:56 | 30.73190 | -33.01993 | 37238 ft | 495 kts | 138° |
| 2026-05-05 15:56 | 30.67608 | -32.97267 | 37249 ft | 495 kts | 138° |
| 2026-05-05 15:57 | 30.62038 | -32.92558 | 37237 ft | 496 kts | 138° |
| 2026-05-05 15:57 | 30.56446 | -32.87838 | 37240 ft | 496 kts | 138° |
| 2026-05-05 15:58 | 30.50892 | -32.83156 | 37231 ft | 497 kts | 137° |
| 2026-05-05 15:58 | 30.45296 | -32.78446 | 37230 ft | 497 kts | 138° |
| 2026-05-05 15:59 | 30.39692 | -32.73736 | 37228 ft | 498 kts | 137° |
| 2026-05-05 15:59 | 30.34092 | -32.69036 | 37225 ft | 498 kts | 137° |
| 2026-05-05 16:00 | 30.28467 | -32.64321 | 37227 ft | 499 kts | 137° |
| 2026-05-05 16:00 | 30.22837 | -32.59610 | 37223 ft | 500 kts | 137° |
| 2026-05-05 16:01 | 30.17193 | -32.54894 | 37222 ft | 500 kts | 137° |
| 2026-05-05 16:01 | 30.11550 | -32.50185 | 37222 ft | 501 kts | 137° |
| 2026-05-05 16:02 | 30.05884 | -32.45464 | 37220 ft | 501 kts | 137° |
| 2026-05-05 16:02 | 30.00269 | -32.40792 | 37213 ft | 501 kts | 137° |
| 2026-05-05 16:03 | 29.94598 | -32.36080 | 37211 ft | 501 kts | 137° |
| 2026-05-05 16:03 | 29.88931 | -32.31379 | 37227 ft | 502 kts | 137° |
| 2026-05-05 16:04 | 29.83260 | -32.26680 | 37212 ft | 501 kts | 137° |
| 2026-05-05 16:04 | 29.77587 | -32.21987 | 37218 ft | 502 kts | 137° |
| 2026-05-05 16:05 | 29.71955 | -32.17334 | 37205 ft | 501 kts | 137° |
| 2026-05-05 16:05 | 29.66284 | -32.12656 | 37215 ft | 501 kts | 137° |
| 2026-05-05 16:06 | 29.60616 | -32.07987 | 37204 ft | 500 kts | 137° |
| 2026-05-05 16:06 | 29.54998 | -32.03365 | 37211 ft | 499 kts | 137° |
| 2026-05-05 16:07 | 29.49343 | -31.98720 | 37197 ft | 499 kts | 137° |
| 2026-05-05 16:07 | 29.43692 | -31.94084 | 37206 ft | 499 kts | 137° |
| 2026-05-05 16:08 | 29.38047 | -31.89460 | 37189 ft | 498 kts | 137° |
| 2026-05-05 16:08 | 29.32400 | -31.84840 | 37197 ft | 498 kts | 138° |
| 2026-05-05 16:09 | 29.26754 | -31.80228 | 37187 ft | 498 kts | 138° |
| 2026-05-05 16:09 | 29.21105 | -31.75620 | 37194 ft | 498 kts | 138° |
| 2026-05-05 16:10 | 29.15493 | -31.71048 | 37183 ft | 498 kts | 138° |
| 2026-05-05 16:10 | 29.09826 | -31.66438 | 37187 ft | 499 kts | 139° |
| 2026-05-05 16:11 | 29.04175 | -31.61846 | 37174 ft | 499 kts | 139° |
| 2026-05-05 16:12 | 28.92875 | -31.52685 | 37172 ft | 499 kts | 139° |
| 2026-05-05 16:13 | 28.78681 | -31.41212 | 37165 ft | 501 kts | 140° |
| 2026-05-05 16:13 | 28.72985 | -31.36620 | 37163 ft | 501 kts | 140° |
| 2026-05-05 16:14 | 28.61618 | -31.27473 | 37160 ft | 502 kts | 140° |
| 2026-05-05 16:15 | 28.50199 | -31.18309 | 37154 ft | 502 kts | 140° |
| 2026-05-05 16:16 | 28.38774 | -31.09165 | 37154 ft | 502 kts | 141° |
| 2026-05-05 16:17 | 28.30238 | -31.02349 | 37152 ft | 502 kts | 141° |
| 2026-05-05 16:18 | 28.21669 | -30.95521 | 37144 ft | 502 kts | 141° |
| 2026-05-05 16:19 | 28.13086 | -30.88695 | 37131 ft | 502 kts | 142° |
| 2026-05-05 16:19 | 28.04512 | -30.81890 | 37134 ft | 502 kts | 142° |
| 2026-05-05 16:20 | 27.93061 | -30.72822 | 37133 ft | 502 kts | 142° |
| 2026-05-05 16:22 | 27.78769 | -30.61538 | 37123 ft | 502 kts | 143° |
| 2026-05-05 16:23 | 27.67297 | -30.52508 | 37118 ft | 503 kts | 143° |
| 2026-05-05 16:23 | 27.58680 | -30.45740 | 37116 ft | 503 kts | 144° |
| 2026-05-05 16:24 | 27.52932 | -30.41231 | 37113 ft | 503 kts | 144° |
| 2026-05-05 16:25 | 27.44334 | -30.34499 | 37111 ft | 504 kts | 144° |
| 2026-05-05 16:25 | 27.38571 | -30.29993 | 36989 ft | 504 kts | 144° |
| 2026-05-05 16:25 | 27.35690 | -30.27744 | 37068 ft | 503 kts | 142° |
| 2026-05-05 16:26 | 27.24175 | -30.18763 | 37105 ft | 503 kts | 143° |
| 2026-05-05 16:27 | 27.18406 | -30.14273 | 37105 ft | 504 kts | 143° |
| 2026-05-05 16:27 | 27.12647 | -30.09796 | 37100 ft | 504 kts | 143° |
| 2026-05-05 16:28 | 27.06878 | -30.05317 | 37100 ft | 504 kts | 143° |
| 2026-05-05 16:28 | 27.01126 | -30.00859 | 37098 ft | 505 kts | 144° |
| 2026-05-05 16:29 | 26.95009 | -29.96982 | 37103 ft | 506 kts | 150° |
| 2026-05-05 16:29 | 26.88813 | -29.93217 | 37100 ft | 506 kts | 150° |
| 2026-05-05 16:30 | 26.82612 | -29.89463 | 37097 ft | 506 kts | 151° |
| 2026-05-05 16:30 | 26.76418 | -29.85719 | 37096 ft | 506 kts | 151° |
| 2026-05-05 16:31 | 26.70259 | -29.82000 | 37098 ft | 506 kts | 151° |
| 2026-05-05 16:31 | 26.64060 | -29.78262 | 37095 ft | 505 kts | 151° |
| 2026-05-05 16:32 | 26.57856 | -29.74525 | 37093 ft | 505 kts | 152° |
| 2026-05-05 16:32 | 26.51667 | -29.70802 | 37091 ft | 505 kts | 152° |
| 2026-05-05 16:33 | 26.45519 | -29.67108 | 37092 ft | 505 kts | 152° |
| 2026-05-05 16:33 | 26.39333 | -29.63397 | 37089 ft | 504 kts | 152° |
| 2026-05-05 16:34 | 26.33154 | -29.59694 | 37087 ft | 504 kts | 152° |
| 2026-05-05 16:34 | 26.26975 | -29.55995 | 37088 ft | 504 kts | 152° |
| 2026-05-05 16:35 | 26.20796 | -29.52300 | 37089 ft | 503 kts | 153° |
| 2026-05-05 16:35 | 26.14623 | -29.48614 | 37086 ft | 503 kts | 153° |
| 2026-05-05 16:36 | 26.08460 | -29.44938 | 37084 ft | 503 kts | 153° |
| 2026-05-05 16:36 | 26.02337 | -29.41291 | 37087 ft | 502 kts | 153° |
| 2026-05-05 16:37 | 25.96184 | -29.37629 | 37086 ft | 501 kts | 153° |
| 2026-05-05 16:37 | 25.90025 | -29.33969 | 37082 ft | 501 kts | 153° |
| 2026-05-05 16:38 | 25.83872 | -29.30317 | 37082 ft | 500 kts | 154° |
| 2026-05-05 16:38 | 25.77740 | -29.26681 | 37079 ft | 500 kts | 154° |
| 2026-05-05 16:39 | 25.71605 | -29.23048 | 37081 ft | 499 kts | 154° |
| 2026-05-05 16:39 | 25.65484 | -29.19428 | 37082 ft | 498 kts | 154° |
| 2026-05-05 16:40 | 25.59410 | -29.15839 | 37084 ft | 498 kts | 154° |
| 2026-05-05 16:40 | 25.53270 | -29.12216 | 37082 ft | 497 kts | 154° |
| 2026-05-05 16:41 | 25.47205 | -29.08641 | 37076 ft | 496 kts | 155° |
| 2026-05-05 16:41 | 25.41108 | -29.05052 | 37074 ft | 496 kts | 155° |
| 2026-05-05 16:42 | 25.35019 | -29.01471 | 37072 ft | 495 kts | 155° |
| 2026-05-05 16:42 | 25.28944 | -28.97903 | 37072 ft | 495 kts | 155° |
| 2026-05-05 16:43 | 25.22854 | -28.94329 | 37069 ft | 494 kts | 155° |
| 2026-05-05 16:43 | 25.16789 | -28.90775 | 37081 ft | 493 kts | 155° |
| 2026-05-05 16:44 | 25.11756 | -28.87828 | 37064 ft | 492 kts | 156° |
| 2026-05-05 16:44 | 25.05704 | -28.84289 | 37075 ft | 491 kts | 156° |
| 2026-05-05 16:45 | 24.99663 | -28.80760 | 37072 ft | 491 kts | 156° |
| 2026-05-05 16:45 | 24.93629 | -28.77239 | 37071 ft | 490 kts | 156° |
| 2026-05-05 16:46 | 24.87644 | -28.73751 | 37066 ft | 489 kts | 156° |
| 2026-05-05 16:46 | 24.81621 | -28.70244 | 37068 ft | 488 kts | 156° |
| 2026-05-05 16:47 | 24.75607 | -28.66746 | 37068 ft | 488 kts | 156° |
| 2026-05-05 16:47 | 24.69608 | -28.63261 | 37068 ft | 487 kts | 157° |
| 2026-05-05 16:48 | 24.63654 | -28.59806 | 37068 ft | 486 kts | 157° |
| 2026-05-05 16:48 | 24.57657 | -28.56329 | 37067 ft | 486 kts | 157° |
| 2026-05-05 16:49 | 24.51681 | -28.52869 | 37064 ft | 485 kts | 157° |
| 2026-05-05 16:49 | 24.45716 | -28.49418 | 37063 ft | 484 kts | 157° |
| 2026-05-05 16:50 | 24.39760 | -28.45978 | 37062 ft | 483 kts | 158° |
| 2026-05-05 16:50 | 24.33842 | -28.42562 | 37059 ft | 482 kts | 158° |
| 2026-05-05 16:51 | 24.27907 | -28.39140 | 37057 ft | 482 kts | 158° |
| 2026-05-05 16:51 | 24.21971 | -28.35721 | 37059 ft | 481 kts | 158° |
| 2026-05-05 16:52 | 24.16047 | -28.32312 | 37060 ft | 481 kts | 158° |
| 2026-05-05 16:52 | 24.10125 | -28.28909 | 37060 ft | 480 kts | 158° |
| 2026-05-05 16:53 | 24.04203 | -28.25509 | 37059 ft | 480 kts | 158° |
| 2026-05-05 16:53 | 23.98284 | -28.22114 | 37057 ft | 480 kts | 158° |
| 2026-05-05 16:54 | 23.92377 | -28.18730 | 37056 ft | 479 kts | 158° |
| 2026-05-05 16:54 | 23.86464 | -28.15346 | 37058 ft | 479 kts | 158° |
| 2026-05-05 16:55 | 23.80586 | -28.11985 | 37057 ft | 479 kts | 158° |
| 2026-05-05 16:55 | 23.74671 | -28.08607 | 37054 ft | 479 kts | 158° |
| 2026-05-05 16:56 | 23.68773 | -28.05241 | 37058 ft | 478 kts | 158° |
| 2026-05-05 16:56 | 23.62873 | -28.01878 | 37053 ft | 478 kts | 159° |
| 2026-05-05 16:57 | 23.56966 | -27.98515 | 37052 ft | 478 kts | 158° |
| 2026-05-05 16:57 | 23.51105 | -27.95181 | 37051 ft | 478 kts | 159° |
| 2026-05-05 16:58 | 23.45209 | -27.91831 | 37060 ft | 478 kts | 159° |
| 2026-05-05 16:58 | 23.39308 | -27.88481 | 37048 ft | 478 kts | 159° |
| 2026-05-05 16:59 | 23.33411 | -27.85137 | 37049 ft | 478 kts | 159° |
| 2026-05-05 16:59 | 23.27523 | -27.81801 | 37051 ft | 478 kts | 159° |
| 2026-05-05 17:00 | 23.21624 | -27.78463 | 37050 ft | 477 kts | 159° |
| 2026-05-05 17:00 | 23.15730 | -27.75130 | 37043 ft | 477 kts | 159° |
| 2026-05-05 17:01 | 23.09866 | -27.71817 | 37038 ft | 477 kts | 159° |
| 2026-05-05 17:01 | 23.03974 | -27.68492 | 37045 ft | 477 kts | 159° |
| 2026-05-05 17:02 | 22.98076 | -27.65167 | 37048 ft | 477 kts | 159° |
| 2026-05-05 17:02 | 22.92176 | -27.61844 | 37045 ft | 477 kts | 159° |
| 2026-05-05 17:03 | 22.86289 | -27.58531 | 37047 ft | 477 kts | 159° |
| 2026-05-05 17:03 | 22.80441 | -27.55244 | 37048 ft | 476 kts | 159° |
| 2026-05-05 17:04 | 22.74560 | -27.51941 | 37047 ft | 476 kts | 159° |
| 2026-05-05 17:04 | 22.68662 | -27.48702 | 37046 ft | 475 kts | 160° |
| 2026-05-05 17:05 | 22.62776 | -27.45486 | 37044 ft | 474 kts | 160° |
| 2026-05-05 17:05 | 22.56882 | -27.42265 | 37045 ft | 473 kts | 160° |
| 2026-05-05 17:06 | 22.51000 | -27.39053 | 37045 ft | 473 kts | 160° |
| 2026-05-05 17:06 | 22.45116 | -27.35844 | 37045 ft | 473 kts | 160° |
| 2026-05-05 17:07 | 22.39241 | -27.32643 | 37045 ft | 473 kts | 160° |
| 2026-05-05 17:07 | 22.33373 | -27.29449 | 37045 ft | 472 kts | 160° |
| 2026-05-05 17:08 | 22.27538 | -27.26275 | 37047 ft | 472 kts | 160° |
| 2026-05-05 17:08 | 22.21667 | -27.23086 | 37041 ft | 472 kts | 160° |
| 2026-05-05 17:09 | 22.15801 | -27.19902 | 37043 ft | 472 kts | 160° |
| 2026-05-05 17:09 | 22.09926 | -27.16716 | 37046 ft | 472 kts | 160° |
| 2026-05-05 17:10 | 22.04050 | -27.13532 | 37047 ft | 472 kts | 160° |
| 2026-05-05 17:10 | 21.98176 | -27.10352 | 37042 ft | 473 kts | 160° |
| 2026-05-05 17:11 | 21.92295 | -27.07172 | 37042 ft | 472 kts | 160° |
| 2026-05-05 17:11 | 21.86416 | -27.03996 | 37044 ft | 472 kts | 160° |
| 2026-05-05 17:12 | 21.80570 | -27.00840 | 37042 ft | 472 kts | 160° |
| 2026-05-05 17:12 | 21.74682 | -26.97665 | 37041 ft | 472 kts | 160° |
| 2026-05-05 17:13 | 21.68809 | -26.94501 | 37042 ft | 472 kts | 160° |
| 2026-05-05 17:13 | 21.62938 | -26.91341 | 37038 ft | 472 kts | 160° |
| 2026-05-05 17:14 | 21.57057 | -26.88179 | 37041 ft | 472 kts | 160° |
| 2026-05-05 17:14 | 21.51224 | -26.85044 | 37039 ft | 471 kts | 160° |
| 2026-05-05 17:15 | 21.45360 | -26.81896 | 37044 ft | 471 kts | 160° |
| 2026-05-05 17:15 | 21.39487 | -26.78746 | 37039 ft | 471 kts | 160° |
| 2026-05-05 17:16 | 21.33617 | -26.75600 | 37037 ft | 471 kts | 160° |
| 2026-05-05 17:16 | 21.27746 | -26.72457 | 37035 ft | 471 kts | 160° |
| 2026-05-05 17:17 | 21.21878 | -26.69319 | 37041 ft | 471 kts | 160° |
| 2026-05-05 17:17 | 21.16031 | -26.66194 | 37037 ft | 471 kts | 160° |
| 2026-05-05 17:18 | 21.10168 | -26.63064 | 37036 ft | 471 kts | 160° |
| 2026-05-05 17:18 | 21.04290 | -26.59927 | 37035 ft | 471 kts | 160° |
| 2026-05-05 17:19 | 20.98418 | -26.56798 | 37033 ft | 471 kts | 160° |
| 2026-05-05 17:19 | 20.92538 | -26.53667 | 37032 ft | 471 kts | 161° |
| 2026-05-05 17:20 | 20.86672 | -26.50546 | 37032 ft | 471 kts | 161° |
| 2026-05-05 17:20 | 20.80842 | -26.47447 | 37032 ft | 470 kts | 161° |
| 2026-05-05 17:21 | 20.74983 | -26.44334 | 37032 ft | 470 kts | 161° |
| 2026-05-05 17:22 | 20.66201 | -26.39675 | 37033 ft | 469 kts | 161° |
| 2026-05-05 17:22 | 20.60356 | -26.36578 | 37035 ft | 469 kts | 161° |
| 2026-05-05 17:23 | 20.54518 | -26.33486 | 37033 ft | 468 kts | 161° |
| 2026-05-05 17:23 | 20.48677 | -26.30396 | 37030 ft | 468 kts | 161° |
| 2026-05-05 17:24 | 20.42839 | -26.27310 | 37028 ft | 467 kts | 161° |
| 2026-05-05 17:24 | 20.37019 | -26.24236 | 37027 ft | 467 kts | 162° |
| 2026-05-05 17:25 | 20.31233 | -26.21183 | 37032 ft | 467 kts | 162° |
| 2026-05-05 17:25 | 20.25421 | -26.18118 | 37030 ft | 466 kts | 162° |
| 2026-05-05 17:26 | 20.19604 | -26.15053 | 37030 ft | 466 kts | 162° |
| 2026-05-05 17:26 | 20.13790 | -26.11993 | 37035 ft | 465 kts | 162° |
| 2026-05-05 17:27 | 20.07975 | -26.08935 | 37021 ft | 465 kts | 162° |
| 2026-05-05 17:27 | 20.02176 | -26.05887 | 37020 ft | 465 kts | 162° |
| 2026-05-05 17:28 | 19.96373 | -26.02840 | 37034 ft | 465 kts | 162° |
| 2026-05-05 17:28 | 19.90608 | -25.99816 | 37028 ft | 464 kts | 162° |
| 2026-05-05 17:29 | 19.84812 | -25.96777 | 37025 ft | 464 kts | 162° |
| 2026-05-05 17:29 | 19.79017 | -25.93742 | 37028 ft | 464 kts | 163° |
| 2026-05-05 17:30 | 19.73228 | -25.90712 | 37026 ft | 464 kts | 163° |
| 2026-05-05 17:30 | 19.67437 | -25.87684 | 37028 ft | 464 kts | 163° |
| 2026-05-05 17:31 | 19.61647 | -25.84658 | 37025 ft | 464 kts | 163° |
| 2026-05-05 17:31 | 19.55881 | -25.81648 | 37025 ft | 464 kts | 163° |
| 2026-05-05 17:32 | 19.50084 | -25.78624 | 37027 ft | 464 kts | 163° |
| 2026-05-05 17:32 | 19.44274 | -25.75595 | 37018 ft | 464 kts | 163° |
| 2026-05-05 17:33 | 19.39455 | -25.73086 | 37021 ft | 464 kts | 163° |
| 2026-05-05 17:33 | 19.32709 | -25.69575 | 37024 ft | 464 kts | 164° |
| 2026-05-05 17:34 | 19.27852 | -25.67048 | 37027 ft | 464 kts | 164° |
| 2026-05-05 17:34 | 19.22086 | -25.64053 | 37027 ft | 464 kts | 164° |
| 2026-05-05 17:35 | 19.16274 | -25.61034 | 37023 ft | 464 kts | 164° |
| 2026-05-05 17:35 | 19.10463 | -25.58019 | 37021 ft | 464 kts | 164° |
| 2026-05-05 17:36 | 19.04665 | -25.55013 | 37017 ft | 464 kts | 164° |
| 2026-05-05 17:36 | 18.98859 | -25.52006 | 37019 ft | 464 kts | 164° |
| 2026-05-05 17:37 | 18.93097 | -25.49023 | 37017 ft | 464 kts | 165° |
| 2026-05-05 17:37 | 18.87282 | -25.46015 | 37016 ft | 464 kts | 165° |
| 2026-05-05 17:38 | 18.81481 | -25.43017 | 37016 ft | 464 kts | 165° |
| 2026-05-05 17:38 | 18.75667 | -25.40014 | 37017 ft | 464 kts | 165° |
| 2026-05-05 17:39 | 18.69860 | -25.37018 | 37018 ft | 464 kts | 165° |
| 2026-05-05 17:39 | 18.64058 | -25.34027 | 37019 ft | 464 kts | 165° |
| 2026-05-05 17:40 | 18.58269 | -25.31044 | 37013 ft | 463 kts | 165° |
| 2026-05-05 17:40 | 18.52470 | -25.28058 | 37016 ft | 463 kts | 165° |
| 2026-05-05 17:41 | 18.46677 | -25.25078 | 37017 ft | 463 kts | 165° |
| 2026-05-05 17:41 | 18.40920 | -25.22118 | 37017 ft | 463 kts | 165° |
| 2026-05-05 17:42 | 18.35125 | -25.19141 | 37018 ft | 463 kts | 165° |
| 2026-05-05 17:42 | 18.29335 | -25.16170 | 37018 ft | 464 kts | 165° |
| 2026-05-05 17:43 | 18.23526 | -25.13190 | 37017 ft | 464 kts | 165° |
| 2026-05-05 17:43 | 18.17729 | -25.10218 | 37019 ft | 464 kts | 165° |
| 2026-05-05 17:44 | 18.11921 | -25.07244 | 37018 ft | 464 kts | 165° |
| 2026-05-05 17:44 | 18.06115 | -25.04273 | 37009 ft | 464 kts | 165° |
| 2026-05-05 17:45 | 18.00309 | -25.01303 | 37008 ft | 464 kts | 165° |
| 2026-05-05 17:45 | 17.94540 | -24.98355 | 37017 ft | 463 kts | 165° |
| 2026-05-05 17:46 | 17.88744 | -24.95395 | 37016 ft | 463 kts | 165° |
| 2026-05-05 17:46 | 17.82953 | -24.92441 | 37016 ft | 462 kts | 165° |
| 2026-05-05 17:47 | 17.77168 | -24.89491 | 37012 ft | 462 kts | 165° |
| 2026-05-05 17:47 | 17.71388 | -24.86546 | 37013 ft | 461 kts | 165° |
| 2026-05-05 17:48 | 17.65621 | -24.83609 | 37018 ft | 461 kts | 165° |
| 2026-05-05 17:48 | 17.59890 | -24.80694 | 37016 ft | 460 kts | 165° |
| 2026-05-05 17:49 | 17.54126 | -24.77763 | 37013 ft | 460 kts | 165° |
| 2026-05-05 17:49 | 17.48366 | -24.74837 | 37013 ft | 459 kts | 165° |
| 2026-05-05 17:50 | 17.42618 | -24.71918 | 37014 ft | 459 kts | 165° |
| 2026-05-05 17:50 | 17.36867 | -24.69000 | 37009 ft | 459 kts | 165° |
| 2026-05-05 17:51 | 17.31132 | -24.66092 | 37012 ft | 458 kts | 165° |
| 2026-05-05 17:51 | 17.25392 | -24.63185 | 37012 ft | 458 kts | 165° |
| 2026-05-05 17:52 | 17.19651 | -24.60278 | 37005 ft | 458 kts | 165° |
| 2026-05-05 17:52 | 17.13908 | -24.57372 | 37002 ft | 458 kts | 165° |
| 2026-05-05 17:53 | 17.08159 | -24.54464 | 37006 ft | 459 kts | 165° |
| 2026-05-05 17:53 | 17.02446 | -24.51578 | 36998 ft | 459 kts | 165° |
| 2026-05-05 17:54 | 16.96699 | -24.48675 | 37003 ft | 459 kts | 165° |
| 2026-05-05 17:54 | 16.90930 | -24.45764 | 37009 ft | 460 kts | 164° |
| 2026-05-05 17:55 | 16.85183 | -24.42866 | 37007 ft | 460 kts | 164° |
| 2026-05-05 17:55 | 16.79399 | -24.39951 | 37003 ft | 461 kts | 164° |
| 2026-05-05 17:56 | 16.73623 | -24.37043 | 37006 ft | 461 kts | 164° |
| 2026-05-05 17:56 | 16.67833 | -24.34129 | 37003 ft | 462 kts | 164° |
| 2026-05-05 17:57 | 16.62056 | -24.31224 | 37021 ft | 462 kts | 165° |
| 2026-05-05 17:57 | 16.56275 | -24.28367 | 36992 ft | 459 kts | 168° |
| 2026-05-05 17:58 | 16.50356 | -24.25853 | 36997 ft | 459 kts | 168° |
| 2026-05-05 17:58 | 16.44451 | -24.23297 | 36997 ft | 460 kts | 168° |
| 2026-05-05 17:59 | 16.38526 | -24.20728 | 36998 ft | 461 kts | 168° |
| 2026-05-05 17:59 | 16.32597 | -24.18158 | 36999 ft | 461 kts | 168° |
| 2026-05-05 18:00 | 16.26659 | -24.15587 | 36995 ft | 462 kts | 168° |
| 2026-05-05 18:00 | 16.20754 | -24.13031 | 36997 ft | 462 kts | 168° |
| 2026-05-05 18:01 | 16.14812 | -24.10461 | 36999 ft | 462 kts | 168° |
| 2026-05-05 18:01 | 16.08861 | -24.07889 | 36993 ft | 463 kts | 168° |
| 2026-05-05 18:02 | 16.02910 | -24.05318 | 36993 ft | 463 kts | 168° |
| 2026-05-05 18:02 | 15.99949 | -24.04039 | 36637 ft | 460 kts | 168° |
| 2026-05-05 18:02 | 15.96996 | -24.02766 | 35568 ft | 469 kts | 167° |
| 2026-05-05 18:02 | 15.94002 | -24.01469 | 34977 ft | 456 kts | 167° |
| 2026-05-05 18:03 | 15.91113 | -24.00225 | 33996 ft | 455 kts | 167° |
| 2026-05-05 18:03 | 15.88189 | -23.98964 | 32818 ft | 454 kts | 166° |
| 2026-05-05 18:03 | 15.85260 | -23.97702 | 31768 ft | 460 kts | 165° |
| 2026-05-05 18:03 | 15.82292 | -23.96424 | 30977 ft | 462 kts | 165° |
| 2026-05-05 18:04 | 15.79320 | -23.95143 | 30261 ft | 461 kts | 165° |
| 2026-05-05 18:04 | 15.76334 | -23.93858 | 29304 ft | 468 kts | 164° |
| 2026-05-05 18:04 | 15.73305 | -23.92554 | 28302 ft | 472 kts | 163° |
| 2026-05-05 18:04 | 15.70258 | -23.91242 | 27385 ft | 475 kts | 163° |
| 2026-05-05 18:05 | 15.67202 | -23.89926 | 26454 ft | 476 kts | 162° |
| 2026-05-05 18:05 | 15.64139 | -23.88608 | 25724 ft | 473 kts | 162° |
| 2026-05-05 18:05 | 15.61138 | -23.87318 | 24993 ft | 474 kts | 161° |
| 2026-05-05 18:05 | 15.58091 | -23.86008 | 24252 ft | 475 kts | 161° |
| 2026-05-05 18:06 | 15.55043 | -23.84694 | 23516 ft | 471 kts | 159° |
| 2026-05-05 18:06 | 15.53116 | -23.83642 | 22858 ft | 475 kts | 149° |
| 2026-05-05 18:06 | 15.49825 | -23.80581 | 21896 ft | 473 kts | 134° |
| 2026-05-05 18:06 | 15.47655 | -23.78061 | 21271 ft | 467 kts | 133° |
| 2026-05-05 18:07 | 15.45526 | -23.75522 | 20578 ft | 463 kts | 133° |
| 2026-05-05 18:07 | 15.43443 | -23.73003 | 19906 ft | 460 kts | 132° |
| 2026-05-05 18:07 | 15.41402 | -23.70511 | 19293 ft | 455 kts | 132° |
| 2026-05-05 18:07 | 15.39369 | -23.68022 | 18604 ft | 452 kts | 132° |
| 2026-05-05 18:08 | 15.37347 | -23.65545 | 18042 ft | 446 kts | 132° |
| 2026-05-05 18:08 | 15.35361 | -23.63112 | 17233 ft | 440 kts | 131° |
| 2026-05-05 18:08 | 15.33395 | -23.60704 | 16097 ft | 433 kts | 131° |
| 2026-05-05 18:08 | 15.31461 | -23.58336 | 15238 ft | 425 kts | 131° |
| 2026-05-05 18:09 | 15.29564 | -23.56013 | 14245 ft | 417 kts | 131° |
| 2026-05-05 18:09 | 15.27620 | -23.53851 | 13756 ft | 395 kts | 141° |
| 2026-05-05 18:09 | 15.25390 | -23.52439 | 13727 ft | 371 kts | 158° |
| 2026-05-05 18:09 | 15.22944 | -23.51799 | 13666 ft | 356 kts | 175° |
| 2026-05-05 18:10 | 15.20535 | -23.51894 | 13664 ft | 340 kts | 190° |
| 2026-05-05 18:10 | 15.18275 | -23.52414 | 13612 ft | 326 kts | 194° |
| 2026-05-05 18:10 | 15.16124 | -23.53015 | 13459 ft | 312 kts | 195° |
| 2026-05-05 18:10 | 15.14102 | -23.53641 | 13312 ft | 297 kts | 197° |
| 2026-05-05 18:11 | 15.12159 | -23.54278 | 13159 ft | 289 kts | 197° |
| 2026-05-05 18:11 | 15.10260 | -23.54919 | 12998 ft | 287 kts | 198° |
| 2026-05-05 18:11 | 15.08349 | -23.55575 | 12530 ft | 292 kts | 198° |
| 2026-05-05 18:11 | 15.06413 | -23.56247 | 12125 ft | 293 kts | 198° |
| 2026-05-05 18:12 | 15.04475 | -23.56925 | 11726 ft | 294 kts | 198° |
| 2026-05-05 18:12 | 15.02530 | -23.57607 | 11300 ft | 296 kts | 198° |
| 2026-05-05 18:12 | 15.00566 | -23.58297 | 10861 ft | 298 kts | 198° |
| 2026-05-05 18:12 | 14.98616 | -23.58982 | 10418 ft | 292 kts | 198° |
| 2026-05-05 18:13 | 14.96709 | -23.59652 | 10008 ft | 286 kts | 198° |
| 2026-05-05 18:13 | 14.94861 | -23.60302 | 9564 ft | 281 kts | 198° |
| 2026-05-05 18:13 | 14.93007 | -23.60953 | 9131 ft | 283 kts | 198° |
| 2026-05-05 18:13 | 14.91130 | -23.61613 | 8702 ft | 286 kts | 198° |
| 2026-05-05 18:14 | 14.89236 | -23.62278 | 8266 ft | 289 kts | 198° |
| 2026-05-05 18:14 | 14.87338 | -23.62944 | 7843 ft | 285 kts | 198° |
| 2026-05-05 18:14 | 14.85483 | -23.63595 | 7445 ft | 278 kts | 198° |
| 2026-05-05 18:14 | 14.83670 | -23.64232 | 7053 ft | 272 kts | 198° |
| 2026-05-05 18:15 | 14.81903 | -23.64838 | 6702 ft | 264 kts | 194° |
| 2026-05-05 18:15 | 14.80112 | -23.64869 | 6250 ft | 258 kts | 163° |
| 2026-05-05 18:15 | 14.78599 | -23.63961 | 5847 ft | 251 kts | 133° |
| 2026-05-05 18:15 | 14.77691 | -23.62467 | 5498 ft | 245 kts | 112° |
| 2026-05-05 18:16 | 14.77026 | -23.60834 | 5161 ft | 246 kts | 112° |
| 2026-05-05 18:16 | 14.76368 | -23.59201 | 4820 ft | 246 kts | 112° |
| 2026-05-05 18:16 | 14.76066 | -23.57488 | 4390 ft | 244 kts | 82° |
| 2026-05-05 18:16 | 14.76783 | -23.55937 | 3980 ft | 241 kts | 46° |
| 2026-05-05 18:17 | 14.78182 | -23.55049 | 3650 ft | 235 kts | 22° |
| 2026-05-05 18:17 | 14.79688 | -23.54440 | 3325 ft | 231 kts | 22° |
| 2026-05-05 18:17 | 14.81137 | -23.53847 | 2972 ft | 222 kts | 22° |
| 2026-05-05 18:17 | 14.82548 | -23.53265 | 2643 ft | 213 kts | 21° |
| 2026-05-05 18:18 | 14.83891 | -23.52710 | 2323 ft | 203 kts | 21° |
| 2026-05-05 18:18 | 14.85164 | -23.52183 | 2008 ft | 191 kts | 21° |
| 2026-05-05 18:18 | 14.86355 | -23.51689 | 1746 ft | 176 kts | 21° |
| 2026-05-05 18:18 | 14.87434 | -23.51241 | 1501 ft | 158 kts | 21° |
| 2026-05-05 18:19 | 14.88405 | -23.50838 | 1284 ft | 146 kts | 21° |
| 2026-05-05 18:19 | 14.89345 | -23.50448 | 1100 ft | 146 kts | 20° |
| 2026-05-05 18:19 | 14.90290 | -23.50057 | 928 ft | 147 kts | 21° |
| 2026-05-05 18:19 | 14.91248 | -23.49660 | 762 ft | 150 kts | 20° |
| 2026-05-05 18:20 | 14.92222 | -23.49254 | 571 ft | 151 kts | 18° |
| 2026-05-05 18:20 | 14.92867 | -23.48989 | 439 ft | 151 kts | 18° |
| 2026-05-05 18:20 | 14.93816 | -23.48593 | 346 ft | 137 kts | 21° |
| 2026-05-05 18:20 | 14.94448 | -23.48332 | 353 ft | 41 kts | 22° |
| 2026-05-05 18:21 | 14.94553 | -23.48339 | 355 ft | 10 kts | 286° |
| 2026-05-05 18:21 | 14.94580 | -23.48414 | 351 ft | 9 kts | 291° |
| 2026-05-05 18:21 | 14.94580 | -23.48443 | 353 ft | 5 kts | 243° |
| 2026-05-05 18:21 | 14.94527 | -23.48474 | 350 ft | 13 kts | 202° |
| 2026-05-05 18:22 | 14.94476 | -23.48495 | 352 ft | 5 kts | 206° |
| 2026-05-05 18:22 | 14.94471 | -23.48537 | 343 ft | 6 kts | 295° |
| 2026-05-05 18:22 | 14.94483 | -23.48564 | 337 ft | 2 kts | 294° |
| 2026-05-05 18:22 | 14.94483 | -23.48565 | 338 ft | 0 kts | 294° |